createdAt,value
2023-06-30T00:00:12.893Z,96365.13
2023-06-30T00:02:43.179Z,96232.66
2023-06-30T00:05:10.830Z,96100.25
2023-06-30T00:07:38.005Z,96166.72
2023-06-30T00:10:05.758Z,96211.81
2023-06-30T00:12:32.434Z,96250.81
2023-06-30T00:14:59.278Z,96273.66
2023-06-30T00:17:25.952Z,96235.66
2023-06-30T00:19:52.743Z,96291.41
2023-06-30T00:22:22.743Z,96312.25
2023-06-30T00:24:56.379Z,96326.03
2023-06-30T00:27:23.856Z,96282.59
2023-06-30T00:29:50.519Z,96215.09
2023-06-30T00:32:17.217Z,96273.69
2023-06-30T00:34:44.017Z,96083.41
2023-06-30T00:37:10.677Z,96225.97
2023-06-30T00:39:37.319Z,96255.31
2023-06-30T00:42:04.237Z,96271.00
2023-06-30T00:44:30.876Z,96314.03
2023-06-30T00:47:01.028Z,96293.72
2023-06-30T00:49:28.832Z,96249.94
2023-06-30T00:51:55.536Z,96277.28
2023-06-30T00:54:22.320Z,96316.41
2023-06-30T00:56:48.978Z,96271.78
2023-06-30T00:59:15.861Z,96307.84
2023-06-30T01:01:57.659Z,96343.88
2023-06-30T01:04:37.423Z,96309.88
2023-06-30T01:07:37.503Z,96288.41
2023-06-30T01:10:24.911Z,96336.78
2023-06-30T01:12:51.690Z,96118.72
2023-06-30T01:15:18.462Z,96263.03
2023-06-30T01:17:47.641Z,96240.88
2023-06-30T01:20:15.631Z,96315.94
2023-06-30T01:22:50.046Z,96286.09
2023-06-30T01:25:21.376Z,96279.44
2023-06-30T01:27:48.116Z,96330.78
2023-06-30T01:30:15.300Z,96255.19
2023-06-30T01:32:42.522Z,96238.00
2023-06-30T01:35:09.359Z,96273.09
2023-06-30T01:37:36.024Z,96242.84
2023-06-30T01:40:05.466Z,96065.31
2023-06-30T01:42:32.111Z,96268.59
2023-06-30T01:44:58.992Z,96265.69
2023-06-30T01:47:25.829Z,96326.88
2023-06-30T01:49:52.733Z,96276.03
2023-06-30T01:52:19.380Z,96032.56
2023-06-30T01:54:46.191Z,96278.13
2023-06-30T01:57:16.009Z,96298.69
2023-06-30T01:59:42.700Z,96192.22
2023-06-30T02:02:09.367Z,96237.53
2023-06-30T02:04:36.113Z,96109.69
2023-06-30T02:07:02.792Z,96276.03
2023-06-30T02:09:42.529Z,96222.69
2023-06-30T02:12:14.417Z,96294.38
2023-06-30T02:14:41.248Z,96283.22
2023-06-30T02:17:09.843Z,96297.78
2023-06-30T02:19:36.469Z,96169.28
2023-06-30T02:22:03.592Z,96247.38
2023-06-30T02:24:30.252Z,96211.69
2023-06-30T02:26:56.910Z,96205.97
2023-06-30T02:29:24.080Z,96222.06
2023-06-30T02:31:50.875Z,96256.31
2023-06-30T02:34:17.557Z,96179.63
2023-06-30T02:36:44.358Z,96200.00
2023-06-30T02:39:11.008Z,96163.38
2023-06-30T02:41:37.693Z,96253.31
2023-06-30T02:44:04.474Z,96224.00
2023-06-30T02:46:31.454Z,96277.75
2023-06-30T02:48:58.203Z,96254.94
2023-06-30T02:51:24.848Z,96231.00
2023-06-30T02:53:51.592Z,96229.72
2023-06-30T02:56:18.730Z,96273.31
2023-06-30T02:58:45.586Z,96159.34
2023-06-30T03:01:12.321Z,96231.69
2023-06-30T03:03:39.943Z,96274.13
2023-06-30T03:06:06.846Z,96247.19
2023-06-30T03:08:33.540Z,96007.63
2023-06-30T03:11:00.943Z,96258.41
2023-06-30T03:13:27.800Z,96238.91
2023-06-30T03:15:54.438Z,96240.19
2023-06-30T03:18:21.281Z,96176.97
2023-06-30T03:20:48.695Z,96242.63
2023-06-30T03:23:15.521Z,96210.81
2023-06-30T03:25:42.556Z,96087.03
2023-06-30T03:28:09.312Z,96240.06
2023-06-30T03:30:36.001Z,96206.38
2023-06-30T03:33:02.886Z,96234.59
2023-06-30T03:35:30.388Z,96286.56
2023-06-30T03:37:57.093Z,96270.94
2023-06-30T03:40:23.948Z,96289.03
2023-06-30T03:42:50.845Z,96186.28
2023-06-30T03:45:17.690Z,96227.63
2023-06-30T03:47:44.376Z,96238.75
2023-06-30T03:50:11.285Z,96181.09
2023-06-30T03:52:38.956Z,96244.13
2023-06-30T03:55:05.951Z,96087.25
2023-06-30T03:57:32.578Z,96122.28
2023-06-30T03:59:59.316Z,96181.03
2023-06-30T04:02:26.082Z,96030.66
2023-06-30T04:04:52.797Z,96178.41
2023-06-30T04:07:19.640Z,96192.91
2023-06-30T04:09:46.505Z,96210.00
2023-06-30T04:12:13.203Z,96072.38
2023-06-30T04:14:40.142Z,96086.13
2023-06-30T04:17:06.894Z,96101.47
2023-06-30T04:19:33.610Z,96209.97
2023-06-30T04:22:01.921Z,96167.03
2023-06-30T04:24:30.755Z,96196.81
2023-06-30T04:26:57.524Z,96114.41
2023-06-30T04:29:24.836Z,96171.59
2023-06-30T04:31:51.561Z,96075.41
2023-06-30T04:34:18.257Z,96026.66
2023-06-30T04:36:44.944Z,96211.09
2023-06-30T04:39:11.656Z,96264.31
2023-06-30T04:41:38.783Z,96229.50
2023-06-30T04:44:05.573Z,96211.19
2023-06-30T04:46:32.562Z,96215.56
2023-06-30T04:49:02.080Z,96131.97
2023-06-30T04:51:29.364Z,96036.75
2023-06-30T04:53:56.008Z,96129.75
2023-06-30T04:56:22.949Z,96255.91
2023-06-30T04:58:50.601Z,96116.00
2023-06-30T05:01:17.557Z,96109.66
2023-06-30T05:03:44.491Z,96260.63
2023-06-30T05:06:11.158Z,96181.88
2023-06-30T05:08:37.890Z,96139.34
2023-06-30T05:11:07.066Z,96193.72
2023-06-30T05:13:36.262Z,96203.13
2023-06-30T05:16:02.997Z,96119.69
2023-06-30T05:18:29.748Z,96053.94
2023-06-30T05:20:56.570Z,96210.66
2023-06-30T05:23:24.816Z,96137.63
2023-06-30T05:25:51.631Z,96104.50
2023-06-30T05:28:18.286Z,96178.44
2023-06-30T05:30:45.023Z,96112.16
2023-06-30T05:33:11.659Z,96154.19
2023-06-30T05:35:38.388Z,96132.88
2023-06-30T05:38:05.147Z,96189.38
2023-06-30T05:40:31.859Z,96227.56
2023-06-30T05:42:58.527Z,96183.91
2023-06-30T05:45:26.532Z,96207.88
2023-06-30T05:47:53.268Z,96147.03
2023-06-30T05:50:23.288Z,96233.19
2023-06-30T05:52:50.536Z,96185.31
2023-06-30T05:55:17.428Z,96226.13
2023-06-30T05:57:44.074Z,96220.66
2023-06-30T06:00:11.652Z,96195.94
2023-06-30T06:02:38.489Z,96196.25
2023-06-30T06:05:06.042Z,96212.53
2023-06-30T06:07:33.313Z,96203.09
2023-06-30T06:10:00.057Z,96130.34
2023-06-30T06:12:26.747Z,96196.06
2023-06-30T06:14:53.414Z,96222.88
2023-06-30T06:17:20.075Z,96184.88
2023-06-30T06:19:46.787Z,96130.88
2023-06-30T06:22:13.459Z,96181.69
2023-06-30T06:24:40.105Z,96156.88
2023-06-30T06:27:06.967Z,96251.13
2023-06-30T06:29:34.068Z,96168.84
2023-06-30T06:32:00.806Z,96173.94
2023-06-30T06:34:27.505Z,96217.47
2023-06-30T06:36:54.186Z,96189.38
2023-06-30T06:39:22.154Z,96182.28
2023-06-30T06:41:49.026Z,96182.72
2023-06-30T06:44:15.735Z,96195.69
2023-06-30T06:46:44.490Z,96189.41
2023-06-30T06:49:11.560Z,96133.84
2023-06-30T06:51:38.343Z,96072.00
2023-06-30T06:54:05.000Z,96199.97
2023-06-30T06:56:31.800Z,96124.00
2023-06-30T06:58:58.526Z,96191.31
2023-06-30T07:01:25.325Z,96213.69
2023-06-30T07:03:52.184Z,96171.72
2023-06-30T07:06:19.794Z,96146.16
2023-06-30T07:08:46.616Z,96157.03
2023-06-30T07:11:14.168Z,96207.97
2023-06-30T07:13:41.088Z,96127.66
2023-06-30T07:16:08.016Z,96131.94
2023-06-30T07:18:35.517Z,96094.53
2023-06-30T07:21:03.131Z,96138.13
2023-06-30T07:23:29.914Z,96132.38
2023-06-30T07:25:56.690Z,96193.78
2023-06-30T07:28:23.365Z,96032.75
2023-06-30T07:30:50.210Z,95947.06
2023-06-30T07:33:18.496Z,96082.06
2023-06-30T07:35:45.440Z,96147.13
2023-06-30T07:38:12.583Z,96174.72
2023-06-30T07:40:53.814Z,95967.50
2023-06-30T07:43:22.285Z,95978.25
2023-06-30T07:45:49.451Z,96001.81
2023-06-30T07:48:16.529Z,96126.06
2023-06-30T07:50:54.666Z,96114.69
2023-06-30T07:53:30.195Z,96088.19
2023-06-30T07:55:57.072Z,95973.25
2023-06-30T07:58:23.868Z,96013.19
2023-06-30T08:00:50.701Z,95886.41
2023-06-30T08:03:17.972Z,96088.44
2023-06-30T08:05:45.159Z,95993.53
2023-06-30T08:08:12.387Z,96025.16
2023-06-30T08:10:40.336Z,96012.78
2023-06-30T08:13:08.162Z,95971.13
2023-06-30T08:15:34.933Z,96095.22
2023-06-30T08:18:08.581Z,96064.34
2023-06-30T08:20:37.844Z,95901.25
2023-06-30T08:23:04.676Z,96011.47
2023-06-30T08:25:31.352Z,96022.41
2023-06-30T08:27:58.429Z,96104.56
2023-06-30T08:30:25.632Z,96043.16
2023-06-30T08:32:52.936Z,96070.78
2023-06-30T08:35:19.915Z,96067.03
2023-06-30T08:37:49.322Z,95964.56
2023-06-30T08:40:28.342Z,95946.81
2023-06-30T08:42:55.125Z,96080.44
2023-06-30T08:45:24.650Z,95923.94
2023-06-30T08:47:51.438Z,96047.19
2023-06-30T08:50:18.316Z,96134.16
2023-06-30T08:52:45.024Z,96003.41
2023-06-30T08:55:12.058Z,96054.44
2023-06-30T08:57:38.970Z,96076.28
2023-06-30T09:00:06.386Z,96053.69
2023-06-30T09:02:33.389Z,96094.00
2023-06-30T09:05:00.398Z,96025.44
2023-06-30T09:07:30.206Z,96156.66
2023-06-30T09:10:07.684Z,95821.25
2023-06-30T09:12:34.388Z,95957.19
2023-06-30T09:15:01.494Z,95977.81
2023-06-30T09:17:28.515Z,96094.44
2023-06-30T09:19:55.290Z,95816.38
2023-06-30T09:22:54.652Z,96047.75
2023-06-30T09:25:26.218Z,96145.72
2023-06-30T09:27:53.451Z,95939.59
2023-06-30T09:30:20.375Z,96034.13
2023-06-30T09:32:47.133Z,96095.22
2023-06-30T09:35:18.265Z,96081.72
2023-06-30T09:37:45.310Z,96017.41
2023-06-30T09:40:14.244Z,96126.75
2023-06-30T09:42:46.824Z,95999.31
2023-06-30T09:45:14.425Z,95969.91
2023-06-30T09:47:41.329Z,95970.59
2023-06-30T09:50:10.190Z,95938.22
2023-06-30T09:52:38.691Z,95746.19
2023-06-30T09:55:12.208Z,96061.69
2023-06-30T09:57:41.246Z,96115.19
2023-06-30T10:00:11.642Z,96052.03
2023-06-30T10:02:45.495Z,96075.78
2023-06-30T10:05:12.525Z,95883.47
2023-06-30T10:07:41.450Z,96007.06
2023-06-30T10:10:11.271Z,96117.16
2023-06-30T10:12:38.369Z,96082.38
2023-06-30T10:15:06.056Z,96030.31
2023-06-30T10:17:33.125Z,95993.38
2023-06-30T10:20:02.052Z,96038.03
2023-06-30T10:22:32.134Z,96084.53
2023-06-30T10:24:58.874Z,96106.59
2023-06-30T10:27:25.596Z,96017.97
2023-06-30T10:29:52.236Z,96092.88
2023-06-30T10:32:21.754Z,95937.34
2023-06-30T10:34:49.138Z,96043.56
2023-06-30T10:37:54.949Z,96115.97
2023-06-30T10:40:26.111Z,96007.03
2023-06-30T10:42:57.541Z,96005.41
2023-06-30T10:45:37.628Z,96091.00
2023-06-30T10:48:11.155Z,95982.44
2023-06-30T10:50:42.860Z,95874.50
2023-06-30T10:53:09.600Z,95942.34
2023-06-30T10:55:36.999Z,95989.03
2023-06-30T10:58:06.030Z,96112.88
2023-06-30T11:00:32.849Z,96009.31
2023-06-30T11:03:00.521Z,96088.47
2023-06-30T11:05:30.969Z,96087.44
2023-06-30T11:08:11.930Z,95999.38
2023-06-30T11:10:39.707Z,95906.00
2023-06-30T11:13:10.260Z,95998.44
2023-06-30T11:15:40.876Z,96097.06
2023-06-30T11:18:13.903Z,96098.09
2023-06-30T11:21:07.491Z,96011.13
2023-06-30T11:23:38.814Z,95990.03
2023-06-30T11:26:16.414Z,96036.69
2023-06-30T11:28:44.040Z,95831.50
2023-06-30T11:31:13.108Z,95999.91
2023-06-30T11:33:40.854Z,96025.88
2023-06-30T11:36:15.978Z,95951.38
2023-06-30T11:38:49.267Z,96014.16
2023-06-30T11:41:22.887Z,95956.44
2023-06-30T11:43:51.110Z,95898.59
2023-06-30T11:46:17.937Z,96020.88
2023-06-30T11:48:44.753Z,96019.09
2023-06-30T11:51:13.046Z,95943.19
2023-06-30T11:53:43.904Z,96073.47
2023-06-30T11:56:10.570Z,96061.09
2023-06-30T11:58:38.132Z,95857.88
2023-06-30T12:01:05.325Z,95985.44
2023-06-30T12:03:32.099Z,96006.19
2023-06-30T12:05:59.146Z,95912.09
2023-06-30T12:08:31.853Z,95974.44
2023-06-30T12:10:58.621Z,95932.09
2023-06-30T12:13:29.217Z,96002.72
2023-06-30T12:15:59.505Z,95963.22
2023-06-30T12:18:36.493Z,95974.28
2023-06-30T12:21:04.403Z,95888.53
2023-06-30T12:23:31.072Z,95987.41
2023-06-30T12:25:57.958Z,95957.81
2023-06-30T12:28:24.735Z,95914.09
2023-06-30T12:30:51.418Z,95955.19
2023-06-30T12:33:21.157Z,95963.75
2023-06-30T12:35:50.515Z,96028.34
2023-06-30T12:38:17.241Z,96017.59
2023-06-30T12:40:44.373Z,95961.75
2023-06-30T12:43:11.307Z,95931.38
2023-06-30T12:45:37.981Z,95891.44
2023-06-30T12:48:04.901Z,95971.72
2023-06-30T12:50:31.655Z,95984.44
2023-06-30T12:52:58.747Z,95974.69
2023-06-30T12:55:25.420Z,96017.72
2023-06-30T12:57:52.374Z,95897.84
2023-06-30T13:00:19.277Z,95922.41
2023-06-30T13:02:45.987Z,95923.47
2023-06-30T13:05:12.832Z,96016.34
2023-06-30T13:07:39.711Z,96018.09
2023-06-30T13:10:07.792Z,95921.00
2023-06-30T13:12:37.425Z,95947.91
2023-06-30T13:15:05.083Z,95982.78
2023-06-30T13:17:31.849Z,95890.53
2023-06-30T13:19:59.067Z,95871.88
2023-06-30T13:22:25.849Z,95729.41
2023-06-30T13:24:53.220Z,95923.78
2023-06-30T13:27:20.012Z,95909.88
2023-06-30T13:29:50.692Z,95873.72
2023-06-30T13:32:17.773Z,95904.97
2023-06-30T13:34:47.943Z,95915.84
2023-06-30T13:37:14.842Z,95918.72
2023-06-30T13:39:41.554Z,95766.31
2023-06-30T13:42:09.048Z,95813.50
2023-06-30T13:44:36.074Z,95868.59
2023-06-30T13:47:02.775Z,95908.06
2023-06-30T13:49:29.475Z,95861.56
2023-06-30T13:51:56.135Z,95927.88
2023-06-30T13:54:23.207Z,95826.59
2023-06-30T13:56:50.622Z,95880.94
2023-06-30T13:59:17.452Z,95969.06
2023-06-30T14:01:44.255Z,95962.00
2023-06-30T14:04:10.982Z,95864.16
2023-06-30T14:06:37.672Z,95867.06
2023-06-30T14:09:04.621Z,95724.94
2023-06-30T14:11:31.328Z,95898.00
2023-06-30T14:13:58.563Z,95885.06
2023-06-30T14:16:25.291Z,95889.91
2023-06-30T14:18:52.088Z,95889.97
2023-06-30T14:21:19.648Z,95823.13
2023-06-30T14:23:46.429Z,95790.00
2023-06-30T14:26:13.234Z,95773.06
2023-06-30T14:28:40.010Z,95940.94
2023-06-30T14:31:06.770Z,95847.38
2023-06-30T14:33:33.605Z,95834.41
2023-06-30T14:36:00.289Z,95816.38
2023-06-30T14:38:26.961Z,95867.03
2023-06-30T14:40:53.745Z,95833.44
2023-06-30T14:43:24.691Z,95853.25
2023-06-30T14:45:51.443Z,95822.00
2023-06-30T14:48:18.208Z,95899.94
2023-06-30T14:50:45.794Z,95872.63
2023-06-30T14:53:12.836Z,95812.75
2023-06-30T14:55:40.224Z,95840.38
2023-06-30T14:58:06.989Z,95854.53
2023-06-30T15:00:34.230Z,95852.16
2023-06-30T15:03:01.639Z,95656.19
2023-06-30T15:05:30.292Z,95842.66
2023-06-30T15:07:57.031Z,95785.91
2023-06-30T15:10:23.839Z,95853.31
2023-06-30T15:12:50.698Z,95704.75
2023-06-30T15:15:17.375Z,95714.56
2023-06-30T15:17:44.137Z,95885.19
2023-06-30T15:20:11.191Z,95585.88
2023-06-30T15:22:37.930Z,95857.31
2023-06-30T15:25:04.955Z,95808.44
2023-06-30T15:27:33.347Z,95885.16
2023-06-30T15:30:00.092Z,95841.84
2023-06-30T15:32:27.072Z,95822.19
2023-06-30T15:34:53.992Z,95716.06
2023-06-30T15:37:20.625Z,95800.69
2023-06-30T15:39:48.632Z,95721.59
2023-06-30T15:42:15.334Z,95797.94
2023-06-30T15:44:43.750Z,95866.41
2023-06-30T15:47:10.680Z,95739.09
2023-06-30T15:49:37.510Z,95689.72
2023-06-30T15:52:04.998Z,95503.72
2023-06-30T15:54:31.773Z,95771.94
2023-06-30T15:56:59.573Z,95759.41
2023-06-30T15:59:26.665Z,95617.94
2023-06-30T16:01:53.805Z,95634.66
2023-06-30T16:04:20.885Z,95773.31
2023-06-30T16:06:47.636Z,95732.50
2023-06-30T16:09:15.842Z,95835.75
2023-06-30T16:11:42.565Z,95661.47
2023-06-30T16:14:09.438Z,95734.88
2023-06-30T16:16:36.643Z,95727.50
2023-06-30T16:19:03.528Z,95836.25
2023-06-30T16:21:30.499Z,95809.19
2023-06-30T16:23:57.711Z,95835.72
2023-06-30T16:26:24.690Z,95791.44
2023-06-30T16:28:51.405Z,95814.22
2023-06-30T16:31:18.312Z,95765.41
2023-06-30T16:33:45.021Z,95786.13
2023-06-30T16:36:11.752Z,95616.63
2023-06-30T16:38:40.771Z,95787.94
2023-06-30T16:41:07.813Z,95748.44
2023-06-30T16:43:34.698Z,95785.28
2023-06-30T16:46:01.394Z,95685.03
2023-06-30T16:48:28.096Z,95849.75
2023-06-30T16:50:54.774Z,95768.88
2023-06-30T16:53:23.019Z,95843.94
2023-06-30T16:55:51.600Z,95728.78
2023-06-30T16:58:19.159Z,95610.25
2023-06-30T17:00:45.998Z,95849.81
2023-06-30T17:03:13.157Z,95595.75
2023-06-30T17:05:40.161Z,95811.88
2023-06-30T17:08:07.237Z,95619.06
2023-06-30T17:10:33.981Z,95732.88
2023-06-30T17:13:00.891Z,95545.06
2023-06-30T17:15:27.642Z,95731.28
2023-06-30T17:18:08.790Z,95802.41
2023-06-30T17:20:38.526Z,95602.06
2023-06-30T17:23:07.200Z,95746.66
2023-06-30T17:25:33.930Z,95761.50
2023-06-30T17:28:00.630Z,95760.47
2023-06-30T17:30:27.288Z,95772.66
2023-06-30T17:32:54.176Z,95855.53
2023-06-30T17:35:20.930Z,95793.09
2023-06-30T17:37:47.591Z,95689.19
2023-06-30T17:40:14.466Z,95778.97
2023-06-30T17:42:41.482Z,95819.59
2023-06-30T17:45:08.521Z,95826.47
2023-06-30T17:47:35.201Z,95797.53
2023-06-30T17:50:01.988Z,95754.47
2023-06-30T17:52:28.759Z,95807.34
2023-06-30T17:54:55.426Z,95787.88
2023-06-30T17:57:22.138Z,95674.94
2023-06-30T17:59:48.832Z,95714.69
2023-06-30T18:02:15.534Z,95823.38
2023-06-30T18:04:42.345Z,95804.22
2023-06-30T18:07:10.891Z,95714.84
2023-06-30T18:09:39.243Z,95737.91
2023-06-30T18:12:06.276Z,95823.22
2023-06-30T18:14:33.410Z,95847.59
2023-06-30T18:17:00.408Z,95791.28
2023-06-30T18:19:27.111Z,95790.63
2023-06-30T18:21:54.121Z,95885.91
2023-06-30T18:24:20.948Z,95797.38
2023-06-30T18:26:48.515Z,95814.72
2023-06-30T18:29:22.441Z,95858.00
2023-06-30T18:31:49.900Z,95790.19
2023-06-30T18:34:16.806Z,95782.31
2023-06-30T18:36:43.559Z,95775.28
2023-06-30T18:39:10.452Z,95829.56
2023-06-30T18:41:37.329Z,95750.91
2023-06-30T18:44:04.633Z,95844.31
2023-06-30T18:46:32.243Z,95661.41
2023-06-30T18:48:59.371Z,95825.38
2023-06-30T18:51:26.920Z,95799.59
2023-06-30T18:53:54.180Z,95777.28
2023-06-30T18:56:24.455Z,95787.22
2023-06-30T18:58:55.498Z,95853.63
2023-06-30T19:01:22.348Z,95581.03
2023-06-30T19:03:51.304Z,95821.91
2023-06-30T19:06:22.801Z,95855.97
2023-06-30T19:08:51.245Z,95866.38
2023-06-30T19:11:17.955Z,95834.81
2023-06-30T19:13:44.886Z,95803.31
2023-06-30T19:16:11.758Z,95628.28
2023-06-30T19:18:40.102Z,95853.38
2023-06-30T19:21:07.534Z,95828.25
2023-06-30T19:23:37.147Z,95677.38
2023-06-30T19:26:03.921Z,95824.88
2023-06-30T19:28:30.753Z,95783.38
2023-06-30T19:30:57.609Z,95901.69
2023-06-30T19:33:29.652Z,95697.34
2023-06-30T19:35:56.992Z,95814.97
2023-06-30T19:38:26.495Z,95842.28
2023-06-30T19:40:54.314Z,95823.81
2023-06-30T19:43:21.069Z,95780.66
2023-06-30T19:45:48.174Z,95760.75
2023-06-30T19:48:16.831Z,95742.22
2023-06-30T19:50:44.048Z,95776.56
2023-06-30T19:53:11.013Z,95860.53
2023-06-30T19:55:37.945Z,95481.31
2023-06-30T19:58:05.197Z,95827.06
2023-06-30T20:00:33.249Z,95828.13
2023-06-30T20:03:00.003Z,95935.50
2023-06-30T20:05:26.826Z,95822.31
2023-06-30T20:07:53.686Z,95802.97
2023-06-30T20:10:20.418Z,95734.34
2023-06-30T20:12:47.245Z,95737.34
2023-06-30T20:15:14.060Z,95890.34
2023-06-30T20:17:40.775Z,95803.19
2023-06-30T20:20:09.500Z,95865.69
2023-06-30T20:22:36.269Z,95736.53
2023-06-30T20:25:03.078Z,95704.47
2023-06-30T20:27:30.099Z,95746.72
2023-06-30T20:29:56.862Z,95707.56
2023-06-30T20:32:23.590Z,95799.16
2023-06-30T20:34:50.378Z,95644.34
2023-06-30T20:37:17.040Z,95771.72
2023-06-30T20:39:43.713Z,95786.84
2023-06-30T20:42:10.591Z,95742.41
2023-06-30T20:44:37.365Z,95847.03
2023-06-30T20:47:04.746Z,95810.34
2023-06-30T20:49:31.587Z,95770.56
2023-06-30T20:51:58.324Z,95745.78
2023-06-30T20:54:25.099Z,95799.13
2023-06-30T20:56:53.199Z,95904.63
2023-06-30T20:59:21.086Z,95874.09
2023-06-30T21:01:48.380Z,95823.91
2023-06-30T21:04:15.218Z,95790.16
2023-06-30T21:06:42.033Z,95870.00
2023-06-30T21:09:08.718Z,95717.53
2023-06-30T21:11:35.436Z,95778.09
2023-06-30T21:14:02.164Z,95779.56
2023-06-30T21:16:28.932Z,95702.00
2023-06-30T21:18:55.721Z,95669.00
2023-06-30T21:21:22.502Z,95835.91
2023-06-30T21:23:49.358Z,95753.56
2023-06-30T21:26:16.147Z,95821.25
2023-06-30T21:28:42.884Z,95821.25
2023-06-30T21:31:09.577Z,95825.94
2023-06-30T21:33:36.289Z,95812.78
2023-06-30T21:36:03.120Z,95909.31
2023-06-30T21:38:29.861Z,95854.41
2023-06-30T21:40:56.572Z,95910.88
2023-06-30T21:43:23.262Z,95722.69
2023-06-30T21:45:50.231Z,95710.28
2023-06-30T21:48:18.239Z,95745.56
2023-06-30T21:50:45.218Z,95757.13
2023-06-30T21:53:12.146Z,95695.59
2023-06-30T21:55:38.992Z,95776.22
2023-06-30T21:58:14.691Z,95685.56
2023-06-30T22:00:50.288Z,95823.94
2023-06-30T22:03:17.323Z,95692.56
2023-06-30T22:05:44.045Z,95742.81
2023-06-30T22:08:11.802Z,95812.72
2023-06-30T22:10:38.504Z,95719.63
2023-06-30T22:13:05.361Z,95750.50
2023-06-30T22:15:32.164Z,95819.22
2023-06-30T22:17:59.008Z,95762.94
2023-06-30T22:20:28.607Z,95855.84
2023-06-30T22:22:55.568Z,95791.91
2023-06-30T22:25:22.350Z,95796.34
2023-06-30T22:27:49.752Z,95753.94
2023-06-30T22:30:17.347Z,95713.69
2023-06-30T22:32:44.172Z,95778.97
2023-06-30T22:35:11.137Z,95910.91
2023-06-30T22:37:38.004Z,95675.47
2023-06-30T22:40:05.096Z,95704.41
2023-06-30T22:42:31.792Z,95766.97
2023-06-30T22:44:58.578Z,95893.31
2023-06-30T22:47:25.473Z,95781.13
2023-06-30T22:49:52.280Z,95668.44
2023-06-30T22:52:18.993Z,95804.94
2023-06-30T22:54:45.700Z,95724.97
2023-06-30T22:57:12.431Z,95741.22
2023-06-30T22:59:39.180Z,95746.03
2023-06-30T23:02:06.237Z,95742.75
2023-06-30T23:04:32.946Z,95862.28
2023-06-30T23:06:59.730Z,95824.72
2023-06-30T23:09:26.472Z,95782.63
2023-06-30T23:11:53.207Z,95897.41
2023-06-30T23:14:22.205Z,95621.94
2023-06-30T23:16:49.140Z,95715.50
2023-06-30T23:19:16.135Z,95752.66
2023-06-30T23:21:46.120Z,95883.00
2023-06-30T23:24:12.992Z,95743.63
2023-06-30T23:26:40.864Z,95778.84
2023-06-30T23:29:09.802Z,95865.16
2023-06-30T23:31:39.639Z,95756.69
2023-06-30T23:34:06.840Z,95827.34
2023-06-30T23:36:34.111Z,95869.06
2023-06-30T23:39:00.878Z,95730.47
2023-06-30T23:41:27.963Z,95696.59
2023-06-30T23:43:54.723Z,95738.03
2023-06-30T23:46:22.180Z,95716.06
2023-06-30T23:48:52.561Z,95784.59
2023-06-30T23:51:19.392Z,95728.44
2023-06-30T23:53:46.095Z,95676.47
2023-06-30T23:56:12.811Z,95707.63
2023-06-30T23:58:39.512Z,95721.34
